Bullange, Belgium
Current Conditions -  °F | °C
As of 11:51 PM on Monday 24 Nov 2014 (Local Time) from EBLB Reporting Station
Clear Clear  
Wind Chill: 24°   Ceiling: Unl
Heat Index: 30°   Visibility: 2.2mi
Dew Point: 30°   Wind: 6mph
Humidity: 100%   Direction: 120°ESE
Pressure: 30.3"   Gusts: NA
Location:  50.41°N, 6.26°E
Report Text: EBLB 242251Z AUTO 12005KT 3600 NCD M01/M01 Q1026 YLO
Loading
Personal Weather Stations






























Interactive Weather Map New forecast layout! Learn more

10-Day Weather Forecast

Advertisements
Track Severe Weather on mobile